Tikaboo Peak, Nevada Weather observations

Data are for 10 minute period ending at time listed.
 Day   Time   Solar   Ave.   Ave.  Ave.  Vector  Max.   Baro.   Total    
  of    of     Rad.   Air    Rel.  Wind   Wind   Wind  Press.  Precip.   
Year   Day            Temp.  Hum.  Speed  Dir.   Gust                    
2015   (PST)  Kw/m2    F      %     mph   deg.    mph    mb.     in.     
-------------------------------------------------------------------------
 181    4:40   0.02   71.2    32    8.2   234    10.2   768.3    0.00 
 181    4:50   0.06   71.7    31    7.3   245     9.7   768.4    0.00 
 181    5:00   0.09   73.3    30    6.3   272     8.5   768.4    0.00 
 181    5:10   0.10   75.1    28    5.7   292     8.8   768.5    0.00 
 181    5:20   0.10   74.5    29    4.6   298     5.4   768.5    0.00 
 181    5:30   0.15   75.0    29    4.2   314     5.1   768.5    0.00 
 181    5:40   0.24   76.9    27    3.4   319     4.6   768.6    0.00 
 181    5:50   0.28   78.5    26    2.8   319     3.8   768.6    0.00 
 181    6:00   0.36   80.6    24    3.0   314     5.0   768.5    0.00 
 181    6:10   0.43   82.1    23    4.0   303     4.8   768.4    0.00 
 181    6:20   0.44   80.8    23    3.3   316     3.8   768.4    0.00 
 181    6:30   0.45   82.1    22    2.0   316     3.5   768.3    0.00 
 181    6:40   0.47   80.8    23    0.5   246     3.1   768.4    0.00 
 181    6:50   0.50   80.7    23    1.6   245     3.5   768.5    0.00 
 181    7:00   0.52   81.8    22    0.7   291     1.9   768.6    0.00 
 181    7:10   0.50   81.2    23    2.6   207     5.0   768.6    0.00 
 181    7:20   0.51   77.7    26    4.8   207     7.6   768.6    0.00 
 181    7:30   0.53   78.5    25    4.4   210     7.2   768.6    0.00 
 181    7:40   0.63   78.0    26    2.2   215     4.4   768.6    0.00 
 181    7:50   0.69   79.8    24    2.8   212     5.8   768.7    0.00 
 181    8:00   0.72   79.6    24    2.3   207     4.5   768.7    0.00 
 181    8:10   0.76   83.4    22    1.1   290     3.7   768.6    0.00 
 181    8:20   0.49   84.8    21    2.4   271     5.0   768.7    0.00 
 181    8:30   0.58   82.6    22    2.3   298     4.4   768.6    0.00 
 181    8:40   0.70   83.0    22    2.5   254     5.6   768.7    0.00 
 181    8:50   0.80   83.6    21    1.9   292     4.5   768.7    0.00 
 181    9:00   100.00   83.8    21    1.8   294     5.6   768.7    0.00 
 181    9:10   0.52   83.0    21    1.4   335     4.6   768.7    0.00 
 181    9:20   0.36   81.5    22    1.2   305     4.2   768.7    0.00 
 181    9:30   0.31   81.5    22    1.2   294     4.4   768.7    0.00 
 181    9:40   0.53   80.6    23    2.7   296     5.3   768.7    0.00 
 181    9:50   100.00   83.1    22    2.6   296     6.4   768.8    0.00 
 181   10:00   1.12   86.5    19    2.3   344     6.9   768.8    0.00 
 181   10:10   1.07   85.2    20    3.5   271     7.7   768.8    0.00 
 181   10:20   1.15   85.3    20    2.5   311     6.4   768.8    0.00 
 181   10:30   1.12   87.8    18    1.5   291     6.6   768.8    0.00 
 181   10:40   1.10   86.6    19    2.4   303     6.3   768.9    0.00 
 181   10:50   1.13   86.8    19    2.6   262     7.8   768.8    0.00 
 181   11:00   1.13   87.5    18    4.2   261     9.4   768.8    0.00 
 181   11:10   1.05   86.6    19    4.3   278     9.1   768.8    0.00 
 181   11:20   1.13   86.9    19    5.7   269    10.5   768.7    0.00 
 181   11:30   1.13   87.0    18    3.4   278     9.1   768.6    0.00 
 181   11:40   1.13   86.5    18    7.4   245    16.1   768.5    0.00 
 181   11:50   1.13   86.0    19    6.8   250    14.5   768.5    0.00 
 181   12:00   1.12   86.8    18    8.6   241    17.3   768.3    0.00 
 181   12:10   1.12   87.1    18    8.3   244    16.0   768.3    0.00 
 181   12:20   1.11   88.7    17    4.4   273    14.0   768.3    0.00 
 181   12:30   1.12   87.9    17    5.5   234    13.1   768.3    0.00 
 181   12:40   1.14   87.7    17    6.6   250    15.8   768.2    0.00 
 181   12:50   1.14   88.1    17    8.5   230    18.0   768.1    0.00 
 181   13:00   1.12   88.5    17   10.6   238    21.1   768.0    0.00 
 181   13:10   1.10   89.3    16    7.9   232    18.0   768.0    0.00 
 181   13:20   1.09   90.1    16    5.4   261    17.0   767.9    0.00 
 181   13:30   1.04   89.2    16    9.6   256    16.9   767.8    0.00 
 181   13:40   1.02   89.3    16   10.2   226    21.0   767.8    0.00 
 181   13:50   1.01   89.8    15    8.4   219    15.5   767.8    0.00 
 181   14:00   1.01   89.9    15    6.3   223    12.7   767.6    0.00 
 181   14:10   1.03   90.3    15    6.1   272    16.2   767.5    0.00 
 181   14:20   1.01   90.4    15    7.6   247    14.8   767.5    0.00 
 181   14:30   0.93   89.6    16    8.0   254    15.7   767.3    0.00 
 181   14:40   0.73   88.5    17    7.1   283    16.6   767.2    0.00 
 181   14:50   0.78   88.1    17    8.3   255    16.7   767.3    0.00 
 181   15:00   0.62   88.2    17    9.4   270    15.9   767.0    0.00 
 181   15:10   0.73   88.5    17    8.1   244    17.3   767.2    0.00 
 181   15:20   0.76   88.9    16   10.7   239    21.2   767.1    0.00 
 181   15:30   0.60   89.0    16   10.8   238    20.2   766.9    0.00 
 181   15:40   0.47   87.7    17    8.4   246    19.2   766.8    0.00 
 181   15:50   0.41   87.3    17    4.5   277     9.1   766.8    0.00 
 181   16:00   0.34   86.7    17    4.8   271    11.2   766.7    0.00 
 181   16:10   0.30   85.7    17    4.2   264    12.3   766.7    0.00 
 181   16:20   0.28   85.7    17    6.5   274    12.0   766.7    0.00 
 181   16:30   0.28   85.7    17    6.7   267    11.8   766.6    0.00 
 181   16:40   0.30   86.1    16    6.5   263    12.6   766.5    0.00 
 181   16:50   0.30   85.2    17    3.8   277    13.4   766.3    0.00 
 181   17:00   0.40   86.4    16    2.1   317     7.6   766.3    0.00 
 181   17:10   0.35   86.1    16    2.1   326    10.5   766.3    0.00 
 181   17:20   0.31   85.4    17    3.7   300     9.1   766.2    0.00 
 181   17:30   0.20   84.8    17    3.7   292     9.3   766.2    0.00 
 181   17:40   0.15   84.2    18    3.4   288    10.7   766.3    0.00 
 181   17:50   0.12   83.6    19    7.9   278    15.1   766.3    0.00 
 181   18:00   0.11   83.3    19    4.7   314    10.1   766.5    0.00 
 181   18:10   0.10   82.9    19    2.7   270     6.1   766.6    0.00 
 181   18:20   0.07   82.8    20    3.8   268     8.7   766.7    0.00 
 181   18:30   0.05   82.1    20    7.2   286    12.6   766.6    0.00 
 181   18:40   0.04   82.0    20    4.6   290    10.2   766.6    0.00 
 181   18:50   0.02   81.6    21    3.3   269     6.3   766.6    0.00 
 181   19:00   0.01   81.0    21    3.1   279     7.0   766.8    0.00 
 181   19:10   0.00   80.5    22    1.8   293     4.5   766.7    0.00 
 181   19:20   0.00   80.6    22    4.1   284     5.9   766.8    0.00 
 181   19:30   0.00   80.4    22    4.9   281     8.2   766.7    0.00 
 181   19:40   0.00   80.0    22    2.7   304     8.1   766.7    0.00 
 181   19:50   0.00   79.4    23    3.0   306     8.7   766.7    0.00 
 181   20:00   0.00   79.2    23    8.6   297    15.6   766.8    0.00 
 181   20:10   0.00   78.9    23    8.9   298    15.9   766.8    0.00 
 181   20:20   0.00   78.6    23    9.9   298    14.4   766.8    0.00 
 181   20:30   0.00   78.4    24    8.5   298    13.7   766.9    0.00 
 181   20:40   0.00   78.1    24    9.0   298    12.9   766.9    0.00 
 181   20:50   0.00   77.7    24   12.2   282    18.4   767.0    0.00 
 181   21:00   0.00   77.3    24    9.7   300    16.1   767.1    0.00 
 181   21:10   0.00   76.7    25   11.8   303    19.2   767.1    0.00 
 181   21:20   0.00   76.6    25    6.7   315    17.7   767.2    0.00 
 181   21:30   0.00   76.2    25    4.5   318    14.7   767.2    0.00 
 181   21:40   0.00   75.9    26    2.5   328     9.9   767.2    0.00 
 181   21:50   0.00   75.7    26    3.0   321    15.1   767.3    0.00 
 181   22:00   0.00   75.5    26    3.9   332    14.6   767.3    0.00 
 181   22:10   0.00   75.1    28   12.2   340    21.9   767.3    0.00 
 181   22:20   0.00   74.6    29   16.9    11    29.9   767.2    0.00 
 181   22:30   0.00   73.5    31   25.8    22    36.2   767.0    0.00 
 181   22:40   0.00   73.0    31   25.7    27    33.8   767.0    0.00 
 181   22:50   0.00   72.7    32   25.9    33    33.8   767.0    0.00 
 181   23:00   0.00   72.4    32   28.6    36    42.2   767.0    0.00 
 181   23:10   0.00   72.2    32   29.8    37    39.8   766.8    0.00 
 181   23:20   0.00   72.3    32   30.4    33    40.4   766.8    0.00 
 181   23:30   0.00   72.1    32   33.1    34    42.6   766.6    0.00 
 181   23:40   0.00   71.7    33   34.8    36    47.8   766.4    0.00 
 181   23:50   0.00   71.5    33   33.7    35    45.8   766.4    0.00 
 182    0:00   0.00   71.3    34   36.2    34    48.2   766.3    0.00 
 182    0:10   0.00   71.1    34   36.7    36    47.3   766.2    0.00 
 182    0:20   0.00   70.9    35   35.7    36    48.2   766.3    0.00 
 182    0:30   0.00   70.9    34   35.3    38    47.6   766.4    0.00 
 182    0:40   0.00   71.0    34   36.5    38    47.0   766.5    0.00 
 182    0:50   0.00   70.7    34   38.5    42    47.8   766.5    0.00 
 182    1:00   0.00   70.4    35   34.3    42    46.7   766.5    0.00 
 182    1:10   0.00   70.2    35   34.3    43    48.5   766.4    0.00 
 182    1:20   0.00   69.7    36   35.0    48    46.9   766.4    0.00 
 182    1:30   0.00   69.6    36   36.5    48    45.6   766.4    0.00 
 182    1:40   0.00   69.5    36   34.0    48    46.2   766.4    0.00 
 182    1:50   0.00   69.6    36   34.1    48    47.0   766.2    0.00 
 182    2:00   0.00   69.6    35   34.3    54    43.6   766.3    0.00 
 182    2:10   0.00   69.5    36   34.4    58    45.5   766.2    0.00 
 182    2:20   0.00   69.5    36   31.8    60    41.4   766.3    0.00 
 182    2:30   0.00   69.7    35   31.1    61    41.4   766.2    0.00 
 182    2:40   0.00   69.5    36   32.1    64    41.1   766.1    0.00 
 182    2:50   0.00   66.3    48   32.4    65    42.3   766.0    0.01 
 182    3:00   0.00   66.8    44   31.7    66    41.7   766.1    0.00 
 182    3:10   0.00   67.9    40   29.0    62    39.8   766.1    0.00 
 182    3:20   0.00   68.4    39   29.1    63    41.8   766.2    0.00 
 182    3:30   0.00   69.0    37   30.0    66    39.0   766.2    0.00 
 182    3:40   0.00   69.3    36   27.2    63    37.8   766.4    0.00 
 182    3:50   0.00   69.8    35   28.3    65    37.6   766.5    0.00 
 182    4:00   0.00   70.0    35   27.0    64    35.2   766.6    0.00 
 182    4:10   0.00   70.4    34   24.2    66    32.8   766.7    0.00 
 182    4:20   0.00   70.4    34   17.6    53    26.2   767.1    0.00 
 182    4:30   0.00   70.3    34    8.4   358    14.6   767.6    0.00 

Return to Tikaboo Peak graphs page.


Western Regional Climate Center,wrcc@dri.edu